sensor_id;sensor_type;location;lat;lon;timestamp;temperature;humidity
51655;DHT22;37732;53.106;7.030;2022-08-05T00:00:58;19.00;99.90
51655;DHT22;37732;53.106;7.030;2022-08-05T00:03:24;18.90;99.90
51655;DHT22;37732;53.106;7.030;2022-08-05T00:05:49;18.90;99.90
51655;DHT22;37732;53.106;7.030;2022-08-05T00:08:15;18.80;99.90
51655;DHT22;37732;53.106;7.030;2022-08-05T00:10:41;18.80;99.90
51655;DHT22;37732;53.106;7.030;2022-08-05T00:13:06;18.70;99.90
51655;DHT22;37732;53.106;7.030;2022-08-05T00:15:32;18.70;99.90
51655;DHT22;37732;53.106;7.030;2022-08-05T00:17:57;18.70;99.90
51655;DHT22;37732;53.106;7.030;2022-08-05T00:20:23;18.70;99.90
51655;DHT22;37732;53.106;7.030;2022-08-05T00:22:49;18.60;99.90
51655;DHT22;37732;53.106;7.030;2022-08-05T00:25:14;18.60;99.90
51655;DHT22;37732;53.106;7.030;2022-08-05T00:27:40;18.60;99.90
51655;DHT22;37732;53.106;7.030;2022-08-05T00:30:06;18.50;99.90
51655;DHT22;37732;53.106;7.030;2022-08-05T00:32:32;18.50;99.90
51655;DHT22;37732;53.106;7.030;2022-08-05T00:34:58;18.50;99.90
51655;DHT22;37732;53.106;7.030;2022-08-05T00:37:23;18.40;99.90
51655;DHT22;37732;53.106;7.030;2022-08-05T00:39:49;18.40;99.90
51655;DHT22;37732;53.106;7.030;2022-08-05T00:42:15;18.40;99.90
51655;DHT22;37732;53.106;7.030;2022-08-05T00:44:42;18.40;99.90
51655;DHT22;37732;53.106;7.030;2022-08-05T00:47:07;18.30;99.90
51655;DHT22;37732;53.106;7.030;2022-08-05T00:49:33;18.30;99.90
51655;DHT22;37732;53.106;7.030;2022-08-05T00:51:59;18.30;99.90
51655;DHT22;37732;53.106;7.030;2022-08-05T00:54:25;18.40;99.90
51655;DHT22;37732;53.106;7.030;2022-08-05T00:56:51;18.40;99.90
51655;DHT22;37732;53.106;7.030;2022-08-05T00:59:16;18.40;99.90
51655;DHT22;37732;53.106;7.030;2022-08-05T01:01:42;18.40;99.90
51655;DHT22;37732;53.106;7.030;2022-08-05T01:04:08;18.40;99.90
51655;DHT22;37732;53.106;7.030;2022-08-05T01:06:33;18.40;99.90
51655;DHT22;37732;53.106;7.030;2022-08-05T01:08:59;18.40;99.90
51655;DHT22;37732;53.106;7.030;2022-08-05T01:11:31;18.40;99.90
51655;DHT22;37732;53.106;7.030;2022-08-05T01:14:44;18.50;99.90
51655;DHT22;37732;53.106;7.030;2022-08-05T01:17:01;18.50;99.90
51655;DHT22;37732;53.106;7.030;2022-08-05T01:24:51;18.60;99.90
51655;DHT22;37732;53.106;7.030;2022-08-05T01:30:11;18.70;99.90
51655;DHT22;37732;53.106;7.030;2022-08-05T01:32:39;18.70;99.90
51655;DHT22;37732;53.106;7.030;2022-08-05T01:35:09;18.70;99.90
51655;DHT22;37732;53.106;7.030;2022-08-05T01:37:50;18.70;99.90
51655;DHT22;37732;53.106;7.030;2022-08-05T01:40:20;18.70;99.90
51655;DHT22;37732;53.106;7.030;2022-08-05T01:42:48;18.70;99.90
51655;DHT22;37732;53.106;7.030;2022-08-05T01:45:17;18.70;99.90
51655;DHT22;37732;53.106;7.030;2022-08-05T01:47:44;18.80;99.90
51655;DHT22;37732;53.106;7.030;2022-08-05T01:50:15;18.80;99.90
51655;DHT22;37732;53.106;7.030;2022-08-05T01:52:44;18.80;99.90
51655;DHT22;37732;53.106;7.030;2022-08-05T01:55:12;18.80;99.90
51655;DHT22;37732;53.106;7.030;2022-08-05T01:57:41;18.80;99.90
51655;DHT22;37732;53.106;7.030;2022-08-05T02:00:08;18.80;99.90
51655;DHT22;37732;53.106;7.030;2022-08-05T02:02:38;18.80;99.90
51655;DHT22;37732;53.106;7.030;2022-08-05T02:05:06;18.80;99.90
51655;DHT22;37732;53.106;7.030;2022-08-05T02:07:34;18.80;99.90
51655;DHT22;37732;53.106;7.030;2022-08-05T02:10:01;18.80;99.90
51655;DHT22;37732;53.106;7.030;2022-08-05T02:12:44;18.70;99.90
51655;DHT22;37732;53.106;7.030;2022-08-05T02:15:16;18.70;99.90
51655;DHT22;37732;53.106;7.030;2022-08-05T02:17:48;18.70;99.90
51655;DHT22;37732;53.106;7.030;2022-08-05T02:20:20;18.70;99.90
51655;DHT22;37732;53.106;7.030;2022-08-05T02:22:54;18.70;99.90
51655;DHT22;37732;53.106;7.030;2022-08-05T02:25:29;18.70;99.90
51655;DHT22;37732;53.106;7.030;2022-08-05T02:27:56;18.60;99.90
51655;DHT22;37732;53.106;7.030;2022-08-05T02:30:24;18.60;99.90
51655;DHT22;37732;53.106;7.030;2022-08-05T02:32:52;18.60;99.90
51655;DHT22;37732;53.106;7.030;2022-08-05T02:35:20;18.60;99.90
51655;DHT22;37732;53.106;7.030;2022-08-05T02:37:48;18.60;99.90
51655;DHT22;37732;53.106;7.030;2022-08-05T02:40:18;18.70;99.90
51655;DHT22;37732;53.106;7.030;2022-08-05T02:42:45;18.70;99.90
51655;DHT22;37732;53.106;7.030;2022-08-05T02:45:12;18.60;99.90
51655;DHT22;37732;53.106;7.030;2022-08-05T02:47:39;18.60;99.90
51655;DHT22;37732;53.106;7.030;2022-08-05T02:50:07;18.60;99.90
51655;DHT22;37732;53.106;7.030;2022-08-05T02:52:33;18.60;99.90
51655;DHT22;37732;53.106;7.030;2022-08-05T02:55:00;18.60;99.90
51655;DHT22;37732;53.106;7.030;2022-08-05T02:57:27;18.60;99.90
51655;DHT22;37732;53.106;7.030;2022-08-05T02:59:53;18.60;99.90
51655;DHT22;37732;53.106;7.030;2022-08-05T03:02:23;18.60;99.90
51655;DHT22;37732;53.106;7.030;2022-08-05T03:04:53;18.60;99.90
51655;DHT22;37732;53.106;7.030;2022-08-05T03:07:20;18.60;99.90
51655;DHT22;37732;53.106;7.030;2022-08-05T03:09:46;18.60;99.90
51655;DHT22;37732;53.106;7.030;2022-08-05T03:12:33;18.60;99.90
51655;DHT22;37732;53.106;7.030;2022-08-05T03:14:59;18.60;99.90
51655;DHT22;37732;53.106;7.030;2022-08-05T03:17:24;18.60;99.90
51655;DHT22;37732;53.106;7.030;2022-08-05T03:19:50;18.60;99.90
51655;DHT22;37732;53.106;7.030;2022-08-05T03:22:16;18.50;99.90
51655;DHT22;37732;53.106;7.030;2022-08-05T03:24:43;18.50;99.90
51655;DHT22;37732;53.106;7.030;2022-08-05T03:27:09;18.50;99.90
51655;DHT22;37732;53.106;7.030;2022-08-05T03:29:35;18.50;99.90
51655;DHT22;37732;53.106;7.030;2022-08-05T03:34:32;18.50;99.90
51655;DHT22;37732;53.106;7.030;2022-08-05T03:36:58;18.60;99.90
51655;DHT22;37732;53.106;7.030;2022-08-05T03:39:24;18.50;99.90
51655;DHT22;37732;53.106;7.030;2022-08-05T03:41:50;18.50;99.90
51655;DHT22;37732;53.106;7.030;2022-08-05T03:44:15;18.60;99.90
51655;DHT22;37732;53.106;7.030;2022-08-05T03:46:41;18.50;99.90
51655;DHT22;37732;53.106;7.030;2022-08-05T03:49:06;18.50;99.90
51655;DHT22;37732;53.106;7.030;2022-08-05T03:51:38;18.50;99.90
51655;DHT22;37732;53.106;7.030;2022-08-05T03:54:13;18.60;99.90
51655;DHT22;37732;53.106;7.030;2022-08-05T03:56:44;18.50;99.90
51655;DHT22;37732;53.106;7.030;2022-08-05T03:59:16;18.50;99.90
51655;DHT22;37732;53.106;7.030;2022-08-05T04:01:45;18.50;99.90
51655;DHT22;37732;53.106;7.030;2022-08-05T04:04:14;18.50;99.90
51655;DHT22;37732;53.106;7.030;2022-08-05T04:06:40;18.50;99.90
51655;DHT22;37732;53.106;7.030;2022-08-05T04:09:06;18.50;99.90
51655;DHT22;37732;53.106;7.030;2022-08-05T04:11:33;18.40;99.90
51655;DHT22;37732;53.106;7.030;2022-08-05T04:14:00;18.40;99.90
51655;DHT22;37732;53.106;7.030;2022-08-05T04:16:27;18.50;99.90
51655;DHT22;37732;53.106;7.030;2022-08-05T04:18:53;18.50;99.90
51655;DHT22;37732;53.106;7.030;2022-08-05T04:21:19;18.50;99.90
51655;DHT22;37732;53.106;7.030;2022-08-05T04:23:44;18.50;99.90
51655;DHT22;37732;53.106;7.030;2022-08-05T04:26:12;18.40;99.90
51655;DHT22;37732;53.106;7.030;2022-08-05T04:28:37;18.40;99.90
51655;DHT22;37732;53.106;7.030;2022-08-05T04:31:03;18.40;99.90
51655;DHT22;37732;53.106;7.030;2022-08-05T04:33:29;18.50;99.90
51655;DHT22;37732;53.106;7.030;2022-08-05T04:35:54;18.40;99.90
51655;DHT22;37732;53.106;7.030;2022-08-05T04:38:20;18.40;99.90
51655;DHT22;37732;53.106;7.030;2022-08-05T04:40:45;18.40;99.90
51655;DHT22;37732;53.106;7.030;2022-08-05T04:43:11;18.50;99.90
51655;DHT22;37732;53.106;7.030;2022-08-05T04:45:37;18.50;99.90
51655;DHT22;37732;53.106;7.030;2022-08-05T04:50:44;18.50;99.90
51655;DHT22;37732;53.106;7.030;2022-08-05T04:53:11;18.50;99.90
51655;DHT22;37732;53.106;7.030;2022-08-05T04:55:38;18.50;99.90
51655;DHT22;37732;53.106;7.030;2022-08-05T04:58:06;18.50;99.90
51655;DHT22;37732;53.106;7.030;2022-08-05T05:00:32;18.50;99.90
51655;DHT22;37732;53.106;7.030;2022-08-05T05:02:58;18.40;99.90
51655;DHT22;37732;53.106;7.030;2022-08-05T05:05:24;18.50;99.90
51655;DHT22;37732;53.106;7.030;2022-08-05T05:07:50;18.50;99.90
51655;DHT22;37732;53.106;7.030;2022-08-05T05:10:16;18.50;99.90
51655;DHT22;37732;53.106;7.030;2022-08-05T05:12:42;18.50;99.90
51655;DHT22;37732;53.106;7.030;2022-08-05T05:15:08;18.50;99.90
51655;DHT22;37732;53.106;7.030;2022-08-05T05:17:39;18.50;99.90
51655;DHT22;37732;53.106;7.030;2022-08-05T05:20:06;18.50;99.90
51655;DHT22;37732;53.106;7.030;2022-08-05T05:22:33;18.60;99.90
51655;DHT22;37732;53.106;7.030;2022-08-05T05:24:58;18.60;99.90
51655;DHT22;37732;53.106;7.030;2022-08-05T05:27:25;18.60;99.90
51655;DHT22;37732;53.106;7.030;2022-08-05T05:29:51;18.60;99.90
51655;DHT22;37732;53.106;7.030;2022-08-05T05:32:16;18.60;99.90
51655;DHT22;37732;53.106;7.030;2022-08-05T05:34:42;18.60;99.90
51655;DHT22;37732;53.106;7.030;2022-08-05T05:37:08;18.60;99.90
51655;DHT22;37732;53.106;7.030;2022-08-05T05:39:33;18.70;99.90
51655;DHT22;37732;53.106;7.030;2022-08-05T05:41:59;18.70;99.90
51655;DHT22;37732;53.106;7.030;2022-08-05T05:44:25;18.70;99.90
51655;DHT22;37732;53.106;7.030;2022-08-05T05:46:51;18.70;99.90
51655;DHT22;37732;53.106;7.030;2022-08-05T05:49:16;18.70;99.90
51655;DHT22;37732;53.106;7.030;2022-08-05T05:51:42;18.60;99.90
51655;DHT22;37732;53.106;7.030;2022-08-05T05:54:07;18.60;99.90
51655;DHT22;37732;53.106;7.030;2022-08-05T05:56:33;18.60;99.90
51655;DHT22;37732;53.106;7.030;2022-08-05T05:59:00;18.60;99.90
51655;DHT22;37732;53.106;7.030;2022-08-05T06:01:25;18.60;99.90
51655;DHT22;37732;53.106;7.030;2022-08-05T06:03:51;18.60;99.90
51655;DHT22;37732;53.106;7.030;2022-08-05T06:06:17;18.60;99.90
51655;DHT22;37732;53.106;7.030;2022-08-05T06:08:42;18.60;99.90
51655;DHT22;37732;53.106;7.030;2022-08-05T06:11:08;18.60;99.90
51655;DHT22;37732;53.106;7.030;2022-08-05T06:13:34;18.50;99.90
51655;DHT22;37732;53.106;7.030;2022-08-05T06:16:00;18.50;99.90
51655;DHT22;37732;53.106;7.030;2022-08-05T06:18:25;18.50;99.90
51655;DHT22;37732;53.106;7.030;2022-08-05T06:20:51;18.50;99.90
51655;DHT22;37732;53.106;7.030;2022-08-05T06:23:17;18.60;99.90
51655;DHT22;37732;53.106;7.030;2022-08-05T06:25:42;18.50;99.90
51655;DHT22;37732;53.106;7.030;2022-08-05T06:28:08;18.50;99.90
51655;DHT22;37732;53.106;7.030;2022-08-05T06:30:33;18.50;99.90
51655;DHT22;37732;53.106;7.030;2022-08-05T06:32:59;18.50;99.90
51655;DHT22;37732;53.106;7.030;2022-08-05T06:35:25;18.60;99.90
51655;DHT22;37732;53.106;7.030;2022-08-05T06:37:50;18.70;99.90
51655;DHT22;37732;53.106;7.030;2022-08-05T06:40:16;18.70;99.90
51655;DHT22;37732;53.106;7.030;2022-08-05T06:42:41;18.70;99.90
51655;DHT22;37732;53.106;7.030;2022-08-05T06:45:07;18.70;99.90
51655;DHT22;37732;53.106;7.030;2022-08-05T06:47:33;18.70;99.90
51655;DHT22;37732;53.106;7.030;2022-08-05T06:49:59;18.80;99.90
51655;DHT22;37732;53.106;7.030;2022-08-05T06:52:24;18.80;99.90
51655;DHT22;37732;53.106;7.030;2022-08-05T06:54:50;18.70;99.90
51655;DHT22;37732;53.106;7.030;2022-08-05T06:57:15;18.80;99.90
51655;DHT22;37732;53.106;7.030;2022-08-05T06:59:43;19.00;99.90
51655;DHT22;37732;53.106;7.030;2022-08-05T07:02:09;19.10;99.90
51655;DHT22;37732;53.106;7.030;2022-08-05T07:04:35;19.10;99.90
51655;DHT22;37732;53.106;7.030;2022-08-05T07:07:01;19.30;99.90
51655;DHT22;37732;53.106;7.030;2022-08-05T07:09:26;19.40;99.90
51655;DHT22;37732;53.106;7.030;2022-08-05T07:11:52;19.50;99.90
51655;DHT22;37732;53.106;7.030;2022-08-05T07:14:20;19.60;99.90
51655;DHT22;37732;53.106;7.030;2022-08-05T07:17:04;19.60;99.90
51655;DHT22;37732;53.106;7.030;2022-08-05T07:19:30;19.70;99.90
51655;DHT22;37732;53.106;7.030;2022-08-05T07:21:55;19.80;99.90
51655;DHT22;37732;53.106;7.030;2022-08-05T07:24:22;19.90;99.90
51655;DHT22;37732;53.106;7.030;2022-08-05T07:26:48;20.00;99.90
51655;DHT22;37732;53.106;7.030;2022-08-05T07:29:14;20.30;99.90
51655;DHT22;37732;53.106;7.030;2022-08-05T07:31:40;20.60;99.90
51655;DHT22;37732;53.106;7.030;2022-08-05T07:34:07;20.70;99.90
51655;DHT22;37732;53.106;7.030;2022-08-05T07:36:32;20.80;99.90
51655;DHT22;37732;53.106;7.030;2022-08-05T07:39:08;21.00;99.90
51655;DHT22;37732;53.106;7.030;2022-08-05T07:41:34;21.10;99.90
51655;DHT22;37732;53.106;7.030;2022-08-05T07:44:01;21.30;99.90
51655;DHT22;37732;53.106;7.030;2022-08-05T07:46:29;21.30;99.90
51655;DHT22;37732;53.106;7.030;2022-08-05T07:48:58;21.30;99.90
51655;DHT22;37732;53.106;7.030;2022-08-05T07:51:24;21.20;99.90
51655;DHT22;37732;53.106;7.030;2022-08-05T07:53:49;21.00;99.90
51655;DHT22;37732;53.106;7.030;2022-08-05T07:56:15;21.00;99.90
51655;DHT22;37732;53.106;7.030;2022-08-05T07:58:41;20.90;99.90
51655;DHT22;37732;53.106;7.030;2022-08-05T08:01:07;20.90;99.90
51655;DHT22;37732;53.106;7.030;2022-08-05T08:03:32;21.00;99.90
51655;DHT22;37732;53.106;7.030;2022-08-05T08:05:58;21.30;99.90
51655;DHT22;37732;53.106;7.030;2022-08-05T08:08:24;21.70;99.90
51655;DHT22;37732;53.106;7.030;2022-08-05T08:10:49;21.80;99.90
51655;DHT22;37732;53.106;7.030;2022-08-05T08:13:15;21.80;99.90
51655;DHT22;37732;53.106;7.030;2022-08-05T08:15:41;21.80;99.90
51655;DHT22;37732;53.106;7.030;2022-08-05T08:18:07;21.80;99.90
51655;DHT22;37732;53.106;7.030;2022-08-05T08:20:32;21.90;99.90
51655;DHT22;37732;53.106;7.030;2022-08-05T08:22:59;21.90;99.90
51655;DHT22;37732;53.106;7.030;2022-08-05T08:25:26;22.00;99.90
51655;DHT22;37732;53.106;7.030;2022-08-05T08:27:53;22.00;99.90
51655;DHT22;37732;53.106;7.030;2022-08-05T08:30:19;21.90;99.90
51655;DHT22;37732;53.106;7.030;2022-08-05T08:32:44;21.90;99.90
51655;DHT22;37732;53.106;7.030;2022-08-05T08:35:10;22.20;99.90
51655;DHT22;37732;53.106;7.030;2022-08-05T08:37:36;22.50;99.90
51655;DHT22;37732;53.106;7.030;2022-08-05T08:40:02;22.60;99.90
51655;DHT22;37732;53.106;7.030;2022-08-05T08:42:28;22.80;99.90
51655;DHT22;37732;53.106;7.030;2022-08-05T08:44:55;23.00;99.90
51655;DHT22;37732;53.106;7.030;2022-08-05T08:47:23;22.90;99.90
51655;DHT22;37732;53.106;7.030;2022-08-05T08:49:55;22.90;99.90
51655;DHT22;37732;53.106;7.030;2022-08-05T08:52:28;22.70;99.90
51655;DHT22;37732;53.106;7.030;2022-08-05T08:54:54;22.60;99.90
51655;DHT22;37732;53.106;7.030;2022-08-05T08:57:21;22.50;99.90
51655;DHT22;37732;53.106;7.030;2022-08-05T08:59:48;22.40;99.90
51655;DHT22;37732;53.106;7.030;2022-08-05T09:02:14;22.70;99.90
51655;DHT22;37732;53.106;7.030;2022-08-05T09:04:40;22.90;99.90
51655;DHT22;37732;53.106;7.030;2022-08-05T09:07:06;22.90;99.90
51655;DHT22;37732;53.106;7.030;2022-08-05T09:09:34;22.80;99.90
51655;DHT22;37732;53.106;7.030;2022-08-05T09:12:04;22.90;99.90
51655;DHT22;37732;53.106;7.030;2022-08-05T09:14:33;23.00;99.90
51655;DHT22;37732;53.106;7.030;2022-08-05T09:17:00;23.00;99.90
51655;DHT22;37732;53.106;7.030;2022-08-05T09:19:26;23.10;99.90
51655;DHT22;37732;53.106;7.030;2022-08-05T09:21:52;23.10;99.90
51655;DHT22;37732;53.106;7.030;2022-08-05T09:24:18;23.20;99.90
51655;DHT22;37732;53.106;7.030;2022-08-05T09:26:51;23.00;99.90
51655;DHT22;37732;53.106;7.030;2022-08-05T09:29:17;23.10;99.90
51655;DHT22;37732;53.106;7.030;2022-08-05T09:31:43;23.10;99.90
51655;DHT22;37732;53.106;7.030;2022-08-05T09:34:24;23.10;99.90
51655;DHT22;37732;53.106;7.030;2022-08-05T09:36:50;23.20;99.90
51655;DHT22;37732;53.106;7.030;2022-08-05T09:39:18;23.20;99.90
51655;DHT22;37732;53.106;7.030;2022-08-05T09:44:41;23.40;99.90
51655;DHT22;37732;53.106;7.030;2022-08-05T09:47:18;23.30;99.90
51655;DHT22;37732;53.106;7.030;2022-08-05T09:49:49;23.40;99.90
51655;DHT22;37732;53.106;7.030;2022-08-05T09:52:16;23.30;99.90
51655;DHT22;37732;53.106;7.030;2022-08-05T09:57:39;23.00;98.60
51655;DHT22;37732;53.106;7.030;2022-08-05T10:02:48;22.80;98.00
51655;DHT22;37732;53.106;7.030;2022-08-05T10:05:19;22.60;98.00
51655;DHT22;37732;53.106;7.030;2022-08-05T10:10:10;22.30;99.60
51655;DHT22;37732;53.106;7.030;2022-08-05T10:12:57;22.50;99.90
51655;DHT22;37732;53.106;7.030;2022-08-05T10:15:25;22.80;99.20
51655;DHT22;37732;53.106;7.030;2022-08-05T10:20:46;23.10;97.40
51655;DHT22;37732;53.106;7.030;2022-08-05T10:23:18;23.10;97.00
51655;DHT22;37732;53.106;7.030;2022-08-05T10:25:44;23.10;96.40
51655;DHT22;37732;53.106;7.030;2022-08-05T10:28:10;23.10;95.60
51655;DHT22;37732;53.106;7.030;2022-08-05T10:30:36;23.20;94.00
51655;DHT22;37732;53.106;7.030;2022-08-05T10:33:03;23.00;92.90
51655;DHT22;37732;53.106;7.030;2022-08-05T10:35:30;23.10;92.10
51655;DHT22;37732;53.106;7.030;2022-08-05T10:37:56;23.40;93.90
51655;DHT22;37732;53.106;7.030;2022-08-05T10:40:34;23.60;92.80
51655;DHT22;37732;53.106;7.030;2022-08-05T10:45:36;23.60;84.60
51655;DHT22;37732;53.106;7.030;2022-08-05T10:48:43;23.40;88.80
51655;DHT22;37732;53.106;7.030;2022-08-05T10:51:12;23.40;91.10
51655;DHT22;37732;53.106;7.030;2022-08-05T10:53:58;23.40;91.90
51655;DHT22;37732;53.106;7.030;2022-08-05T10:56:26;23.50;91.00
51655;DHT22;37732;53.106;7.030;2022-08-05T11:01:31;23.90;84.60
51655;DHT22;37732;53.106;7.030;2022-08-05T11:09:33;24.40;76.70
51655;DHT22;37732;53.106;7.030;2022-08-05T11:12:00;24.30;76.40
51655;DHT22;37732;53.106;7.030;2022-08-05T11:14:28;24.30;74.50
51655;DHT22;37732;53.106;7.030;2022-08-05T11:17:24;24.20;77.40
51655;DHT22;37732;53.106;7.030;2022-08-05T11:19:55;24.20;74.00
51655;DHT22;37732;53.106;7.030;2022-08-05T11:25:33;24.30;70.40
51655;DHT22;37732;53.106;7.030;2022-08-05T11:33:34;24.40;58.90
51655;DHT22;37732;53.106;7.030;2022-08-05T11:36:09;24.30;58.80
51655;DHT22;37732;53.106;7.030;2022-08-05T11:41:16;24.60;58.40
51655;DHT22;37732;53.106;7.030;2022-08-05T11:43:44;24.50;56.20
51655;DHT22;37732;53.106;7.030;2022-08-05T11:46:17;24.50;56.60
51655;DHT22;37732;53.106;7.030;2022-08-05T11:48:49;24.50;58.30
51655;DHT22;37732;53.106;7.030;2022-08-05T11:51:15;24.70;59.20
51655;DHT22;37732;53.106;7.030;2022-08-05T11:53:41;24.90;58.90
51655;DHT22;37732;53.106;7.030;2022-08-05T11:56:06;25.10;57.20
51655;DHT22;37732;53.106;7.030;2022-08-05T11:58:36;25.10;59.10
51655;DHT22;37732;53.106;7.030;2022-08-05T12:01:08;25.10;57.30
51655;DHT22;37732;53.106;7.030;2022-08-05T12:03:46;24.90;57.40
51655;DHT22;37732;53.106;7.030;2022-08-05T12:06:14;24.80;59.10
51655;DHT22;37732;53.106;7.030;2022-08-05T12:08:45;24.70;59.10
51655;DHT22;37732;53.106;7.030;2022-08-05T12:11:26;24.70;57.70
51655;DHT22;37732;53.106;7.030;2022-08-05T12:16:20;24.60;59.90
51655;DHT22;37732;53.106;7.030;2022-08-05T12:18:46;24.20;57.70
51655;DHT22;37732;53.106;7.030;2022-08-05T12:21:14;24.10;57.30
51655;DHT22;37732;53.106;7.030;2022-08-05T12:24:12;24.20;59.60
51655;DHT22;37732;53.106;7.030;2022-08-05T12:26:47;24.10;60.80
51655;DHT22;37732;53.106;7.030;2022-08-05T12:34:17;23.80;58.90
51655;DHT22;37732;53.106;7.030;2022-08-05T12:36:43;23.50;57.90
51655;DHT22;37732;53.106;7.030;2022-08-05T12:39:10;23.40;59.10
51655;DHT22;37732;53.106;7.030;2022-08-05T12:41:37;23.40;58.50
51655;DHT22;37732;53.106;7.030;2022-08-05T12:44:11;23.70;58.80
51655;DHT22;37732;53.106;7.030;2022-08-05T12:46:39;23.70;58.30
51655;DHT22;37732;53.106;7.030;2022-08-05T12:49:13;23.30;58.30
51655;DHT22;37732;53.106;7.030;2022-08-05T12:51:54;23.50;58.90
51655;DHT22;37732;53.106;7.030;2022-08-05T12:54:29;23.50;55.70
51655;DHT22;37732;53.106;7.030;2022-08-05T12:56:57;23.60;58.40
51655;DHT22;37732;53.106;7.030;2022-08-05T13:02:02;23.20;60.50
51655;DHT22;37732;53.106;7.030;2022-08-05T13:04:37;23.00;62.30
51655;DHT22;37732;53.106;7.030;2022-08-05T13:07:05;23.00;63.90
51655;DHT22;37732;53.106;7.030;2022-08-05T13:09:46;23.00;64.80
51655;DHT22;37732;53.106;7.030;2022-08-05T13:12:14;22.80;63.30
51655;DHT22;37732;53.106;7.030;2022-08-05T13:14:48;22.80;63.70
51655;DHT22;37732;53.106;7.030;2022-08-05T13:20:07;22.90;63.40
51655;DHT22;37732;53.106;7.030;2022-08-05T13:22:36;23.00;64.40
51655;DHT22;37732;53.106;7.030;2022-08-05T13:25:04;22.90;65.60
51655;DHT22;37732;53.106;7.030;2022-08-05T13:27:33;22.70;64.70
51655;DHT22;37732;53.106;7.030;2022-08-05T13:29:59;22.80;65.20
51655;DHT22;37732;53.106;7.030;2022-08-05T13:32:25;22.60;65.30
51655;DHT22;37732;53.106;7.030;2022-08-05T13:34:50;22.60;66.10
51655;DHT22;37732;53.106;7.030;2022-08-05T13:37:20;22.50;67.20
51655;DHT22;37732;53.106;7.030;2022-08-05T13:39:47;22.40;66.90
51655;DHT22;37732;53.106;7.030;2022-08-05T13:42:14;22.30;68.70
51655;DHT22;37732;53.106;7.030;2022-08-05T13:44:41;22.50;68.90
51655;DHT22;37732;53.106;7.030;2022-08-05T13:47:06;22.60;68.70
51655;DHT22;37732;53.106;7.030;2022-08-05T13:49:32;22.60;68.20
51655;DHT22;37732;53.106;7.030;2022-08-05T13:52:09;22.60;68.30
51655;DHT22;37732;53.106;7.030;2022-08-05T13:54:34;22.60;67.90
51655;DHT22;37732;53.106;7.030;2022-08-05T13:57:00;22.40;68.40
51655;DHT22;37732;53.106;7.030;2022-08-05T13:59:26;22.20;69.60
51655;DHT22;37732;53.106;7.030;2022-08-05T14:01:52;22.10;70.00
51655;DHT22;37732;53.106;7.030;2022-08-05T14:04:18;22.10;70.50
51655;DHT22;37732;53.106;7.030;2022-08-05T14:07:02;22.10;70.20
51655;DHT22;37732;53.106;7.030;2022-08-05T14:09:28;22.10;68.60
51655;DHT22;37732;53.106;7.030;2022-08-05T14:11:54;21.90;68.10
51655;DHT22;37732;53.106;7.030;2022-08-05T14:14:19;22.10;69.80
51655;DHT22;37732;53.106;7.030;2022-08-05T14:16:45;22.20;69.50
51655;DHT22;37732;53.106;7.030;2022-08-05T14:19:10;22.30;69.10
51655;DHT22;37732;53.106;7.030;2022-08-05T14:21:36;22.50;69.40
51655;DHT22;37732;53.106;7.030;2022-08-05T14:24:02;22.40;68.70
51655;DHT22;37732;53.106;7.030;2022-08-05T14:26:27;22.30;69.30
51655;DHT22;37732;53.106;7.030;2022-08-05T14:28:53;22.10;69.20
51655;DHT22;37732;53.106;7.030;2022-08-05T14:31:19;22.10;71.80
51655;DHT22;37732;53.106;7.030;2022-08-05T14:33:44;22.30;71.10
51655;DHT22;37732;53.106;7.030;2022-08-05T14:36:10;22.10;69.90
51655;DHT22;37732;53.106;7.030;2022-08-05T14:38:36;21.90;69.70
51655;DHT22;37732;53.106;7.030;2022-08-05T14:41:03;21.80;69.60
51655;DHT22;37732;53.106;7.030;2022-08-05T14:43:29;21.90;69.30
51655;DHT22;37732;53.106;7.030;2022-08-05T14:45:54;22.00;70.80
51655;DHT22;37732;53.106;7.030;2022-08-05T14:48:20;22.20;69.80
51655;DHT22;37732;53.106;7.030;2022-08-05T14:50:46;22.40;68.60
51655;DHT22;37732;53.106;7.030;2022-08-05T14:53:11;22.30;68.10
51655;DHT22;37732;53.106;7.030;2022-08-05T14:55:37;22.30;69.00
51655;DHT22;37732;53.106;7.030;2022-08-05T14:58:03;22.40;70.90
51655;DHT22;37732;53.106;7.030;2022-08-05T15:00:28;22.50;73.00
51655;DHT22;37732;53.106;7.030;2022-08-05T15:02:54;22.70;74.40
51655;DHT22;37732;53.106;7.030;2022-08-05T15:05:20;22.70;74.80
51655;DHT22;37732;53.106;7.030;2022-08-05T15:07:45;22.60;74.20
51655;DHT22;37732;53.106;7.030;2022-08-05T15:10:11;22.40;73.90
51655;DHT22;37732;53.106;7.030;2022-08-05T15:12:37;22.30;74.40
51655;DHT22;37732;53.106;7.030;2022-08-05T15:15:03;22.10;75.10
51655;DHT22;37732;53.106;7.030;2022-08-05T15:17:28;22.20;76.60
51655;DHT22;37732;53.106;7.030;2022-08-05T15:19:54;22.20;76.40
51655;DHT22;37732;53.106;7.030;2022-08-05T15:22:20;22.20;76.10
51655;DHT22;37732;53.106;7.030;2022-08-05T15:24:45;22.30;76.00
51655;DHT22;37732;53.106;7.030;2022-08-05T15:27:11;22.40;75.40
51655;DHT22;37732;53.106;7.030;2022-08-05T15:29:37;22.50;74.60
51655;DHT22;37732;53.106;7.030;2022-08-05T15:32:02;22.50;74.60
51655;DHT22;37732;53.106;7.030;2022-08-05T15:34:28;22.50;74.40
51655;DHT22;37732;53.106;7.030;2022-08-05T15:36:54;22.50;73.70
51655;DHT22;37732;53.106;7.030;2022-08-05T15:39:20;22.40;73.40
51655;DHT22;37732;53.106;7.030;2022-08-05T15:41:45;22.20;73.50
51655;DHT22;37732;53.106;7.030;2022-08-05T15:44:11;22.00;73.40
51655;DHT22;37732;53.106;7.030;2022-08-05T15:46:37;21.90;74.20
51655;DHT22;37732;53.106;7.030;2022-08-05T15:49:02;21.60;73.30
51655;DHT22;37732;53.106;7.030;2022-08-05T15:51:29;21.70;74.60
51655;DHT22;37732;53.106;7.030;2022-08-05T15:53:54;21.60;74.30
51655;DHT22;37732;53.106;7.030;2022-08-05T15:56:20;21.60;74.40
51655;DHT22;37732;53.106;7.030;2022-08-05T15:58:47;21.50;73.10
51655;DHT22;37732;53.106;7.030;2022-08-05T16:01:13;21.30;72.50
51655;DHT22;37732;53.106;7.030;2022-08-05T16:03:39;21.30;73.70
51655;DHT22;37732;53.106;7.030;2022-08-05T16:06:07;21.30;74.70
51655;DHT22;37732;53.106;7.030;2022-08-05T16:08:32;21.40;74.80
51655;DHT22;37732;53.106;7.030;2022-08-05T16:10:58;21.50;73.80
51655;DHT22;37732;53.106;7.030;2022-08-05T16:13:24;21.40;73.70
51655;DHT22;37732;53.106;7.030;2022-08-05T16:15:50;21.20;73.80
51655;DHT22;37732;53.106;7.030;2022-08-05T16:18:17;21.30;75.00
51655;DHT22;37732;53.106;7.030;2022-08-05T16:20:42;21.40;73.90
51655;DHT22;37732;53.106;7.030;2022-08-05T16:23:08;21.40;73.10
51655;DHT22;37732;53.106;7.030;2022-08-05T16:25:34;21.30;73.50
51655;DHT22;37732;53.106;7.030;2022-08-05T16:28:04;21.30;72.60
51655;DHT22;37732;53.106;7.030;2022-08-05T16:30:30;21.20;72.80
51655;DHT22;37732;53.106;7.030;2022-08-05T16:32:57;21.20;72.40
51655;DHT22;37732;53.106;7.030;2022-08-05T16:35:22;21.20;72.50